Аэропорт: Витязево. Анапа

ICAO: URKA

METAR:
2024-05-18 15:30:00
URKA 181530Z 26004MPS CAVOK 16/09 Q1018 R21/010070 NOSIG RMK QFE759/1012
TAF:
2024-05-18 13:46:00
TAF URKA 181346Z 1815/1915 26003G08MPS CAVOK 
  FM181800 22003MPS 6000 SCT016 
  TEMPO 1818/1905 16003G08MPS 
  FM190500 26003G08MPS 9999 SCT020CB 
  TEMPO 1905/1915 30006G12MPS 6000 -TSRA BKN016CB